sensor_id;sensor_type;location;lat;lon;timestamp;temperature;humidity
55771;DHT22;41687;-33.234;-60.334;2023-04-30T00:01:01;20.80;86.50
55771;DHT22;41687;-33.234;-60.334;2023-04-30T00:03:29;20.70;86.70
55771;DHT22;41687;-33.234;-60.334;2023-04-30T00:05:57;20.80;86.40
55771;DHT22;41687;-33.234;-60.334;2023-04-30T00:08:25;20.70;86.10
55771;DHT22;41687;-33.234;-60.334;2023-04-30T00:10:52;20.70;85.90
55771;DHT22;41687;-33.234;-60.334;2023-04-30T00:13:20;20.70;86.20
55771;DHT22;41687;-33.234;-60.334;2023-04-30T00:15:47;20.70;86.50
55771;DHT22;41687;-33.234;-60.334;2023-04-30T00:18:16;20.50;86.60
55771;DHT22;41687;-33.234;-60.334;2023-04-30T00:20:43;20.60;86.60
55771;DHT22;41687;-33.234;-60.334;2023-04-30T00:23:12;20.60;86.30
55771;DHT22;41687;-33.234;-60.334;2023-04-30T00:25:39;20.70;86.30
55771;DHT22;41687;-33.234;-60.334;2023-04-30T00:28:07;20.60;86.80
55771;DHT22;41687;-33.234;-60.334;2023-04-30T00:30:34;20.40;86.90
55771;DHT22;41687;-33.234;-60.334;2023-04-30T00:33:02;20.40;87.00
55771;DHT22;41687;-33.234;-60.334;2023-04-30T00:35:29;20.40;87.40
55771;DHT22;41687;-33.234;-60.334;2023-04-30T00:37:57;20.40;87.50
55771;DHT22;41687;-33.234;-60.334;2023-04-30T00:40:25;20.20;88.10
55771;DHT22;41687;-33.234;-60.334;2023-04-30T00:42:52;20.30;87.50
55771;DHT22;41687;-33.234;-60.334;2023-04-30T00:45:22;20.30;88.40
55771;DHT22;41687;-33.234;-60.334;2023-04-30T00:47:50;20.20;88.20
55771;DHT22;41687;-33.234;-60.334;2023-04-30T00:50:18;20.30;88.40
55771;DHT22;41687;-33.234;-60.334;2023-04-30T00:52:46;20.30;87.80
55771;DHT22;41687;-33.234;-60.334;2023-04-30T00:55:14;20.30;88.50
55771;DHT22;41687;-33.234;-60.334;2023-04-30T00:57:42;20.30;87.80
55771;DHT22;41687;-33.234;-60.334;2023-04-30T01:00:10;20.20;88.30
55771;DHT22;41687;-33.234;-60.334;2023-04-30T01:02:40;20.20;88.60
55771;DHT22;41687;-33.234;-60.334;2023-04-30T01:05:07;20.10;89.00
55771;DHT22;41687;-33.234;-60.334;2023-04-30T01:07:37;20.20;88.80
55771;DHT22;41687;-33.234;-60.334;2023-04-30T01:10:11;20.20;89.00
55771;DHT22;41687;-33.234;-60.334;2023-04-30T01:15:13;20.20;88.50
55771;DHT22;41687;-33.234;-60.334;2023-04-30T01:17:54;20.20;88.90
55771;DHT22;41687;-33.234;-60.334;2023-04-30T01:20:26;20.00;89.50
55771;DHT22;41687;-33.234;-60.334;2023-04-30T01:28:32;20.10;89.50
55771;DHT22;41687;-33.234;-60.334;2023-04-30T01:31:02;20.00;89.50
55771;DHT22;41687;-33.234;-60.334;2023-04-30T01:33:30;20.00;89.80
55771;DHT22;41687;-33.234;-60.334;2023-04-30T01:36:34;20.00;89.40
55771;DHT22;41687;-33.234;-60.334;2023-04-30T01:42:15;19.90;90.10
55771;DHT22;41687;-33.234;-60.334;2023-04-30T01:48:18;20.00;90.00
55771;DHT22;41687;-33.234;-60.334;2023-04-30T01:51:14;20.00;89.70
55771;DHT22;41687;-33.234;-60.334;2023-04-30T01:53:44;20.00;89.90
55771;DHT22;41687;-33.234;-60.334;2023-04-30T01:56:30;19.90;90.00
55771;DHT22;41687;-33.234;-60.334;2023-04-30T01:59:00;20.00;90.20
55771;DHT22;41687;-33.234;-60.334;2023-04-30T02:01:32;20.00;89.70
55771;DHT22;41687;-33.234;-60.334;2023-04-30T02:04:00;20.00;90.10
55771;DHT22;41687;-33.234;-60.334;2023-04-30T02:06:29;20.10;89.90
55771;DHT22;41687;-33.234;-60.334;2023-04-30T02:08:58;20.10;89.50
55771;DHT22;41687;-33.234;-60.334;2023-04-30T02:11:31;20.20;89.00
55771;DHT22;41687;-33.234;-60.334;2023-04-30T02:13:59;20.20;89.10
55771;DHT22;41687;-33.234;-60.334;2023-04-30T02:16:26;20.20;89.40
55771;DHT22;41687;-33.234;-60.334;2023-04-30T02:18:54;20.20;89.20
55771;DHT22;41687;-33.234;-60.334;2023-04-30T02:21:22;20.20;89.40
55771;DHT22;41687;-33.234;-60.334;2023-04-30T02:23:50;20.10;89.40
55771;DHT22;41687;-33.234;-60.334;2023-04-30T02:26:18;20.10;89.50
55771;DHT22;41687;-33.234;-60.334;2023-04-30T02:28:45;20.10;89.60
55771;DHT22;41687;-33.234;-60.334;2023-04-30T02:31:14;20.10;89.70
55771;DHT22;41687;-33.234;-60.334;2023-04-30T02:33:41;20.10;89.50
55771;DHT22;41687;-33.234;-60.334;2023-04-30T02:36:09;20.10;89.90
55771;DHT22;41687;-33.234;-60.334;2023-04-30T02:38:36;20.10;89.50
55771;DHT22;41687;-33.234;-60.334;2023-04-30T02:41:04;20.10;89.30
55771;DHT22;41687;-33.234;-60.334;2023-04-30T02:43:32;20.10;90.00
55771;DHT22;41687;-33.234;-60.334;2023-04-30T02:46:00;20.10;90.00
55771;DHT22;41687;-33.234;-60.334;2023-04-30T02:48:27;20.00;90.10
55771;DHT22;41687;-33.234;-60.334;2023-04-30T02:50:55;20.00;90.10
55771;DHT22;41687;-33.234;-60.334;2023-04-30T02:53:23;20.10;90.00
55771;DHT22;41687;-33.234;-60.334;2023-04-30T02:55:50;20.20;90.00
55771;DHT22;41687;-33.234;-60.334;2023-04-30T02:58:18;20.20;90.00
55771;DHT22;41687;-33.234;-60.334;2023-04-30T03:00:47;20.20;90.00
55771;DHT22;41687;-33.234;-60.334;2023-04-30T03:03:14;20.20;90.00
55771;DHT22;41687;-33.234;-60.334;2023-04-30T03:05:43;20.30;89.60
55771;DHT22;41687;-33.234;-60.334;2023-04-30T03:08:11;20.30;89.60
55771;DHT22;41687;-33.234;-60.334;2023-04-30T03:10:39;20.30;89.40
55771;DHT22;41687;-33.234;-60.334;2023-04-30T03:13:06;20.40;89.10
55771;DHT22;41687;-33.234;-60.334;2023-04-30T03:15:34;20.30;89.20
55771;DHT22;41687;-33.234;-60.334;2023-04-30T03:18:02;20.40;89.30
55771;DHT22;41687;-33.234;-60.334;2023-04-30T03:20:30;20.40;89.30
55771;DHT22;41687;-33.234;-60.334;2023-04-30T03:22:58;20.30;89.20
55771;DHT22;41687;-33.234;-60.334;2023-04-30T03:25:25;20.40;89.00
55771;DHT22;41687;-33.234;-60.334;2023-04-30T03:27:53;20.40;89.10
55771;DHT22;41687;-33.234;-60.334;2023-04-30T03:30:21;20.40;89.00
55771;DHT22;41687;-33.234;-60.334;2023-04-30T03:32:49;20.40;89.10
55771;DHT22;41687;-33.234;-60.334;2023-04-30T03:35:16;20.30;89.30
55771;DHT22;41687;-33.234;-60.334;2023-04-30T03:37:44;20.40;89.30
55771;DHT22;41687;-33.234;-60.334;2023-04-30T03:40:13;20.40;88.90
55771;DHT22;41687;-33.234;-60.334;2023-04-30T03:42:41;20.50;89.00
55771;DHT22;41687;-33.234;-60.334;2023-04-30T03:45:09;20.50;88.80
55771;DHT22;41687;-33.234;-60.334;2023-04-30T03:47:36;20.60;88.70
55771;DHT22;41687;-33.234;-60.334;2023-04-30T03:50:05;20.60;88.50
55771;DHT22;41687;-33.234;-60.334;2023-04-30T03:52:33;20.50;88.40
55771;DHT22;41687;-33.234;-60.334;2023-04-30T03:55:01;20.50;88.50
55771;DHT22;41687;-33.234;-60.334;2023-04-30T03:57:29;20.50;88.70
55771;DHT22;41687;-33.234;-60.334;2023-04-30T03:59:58;20.50;88.60
55771;DHT22;41687;-33.234;-60.334;2023-04-30T04:02:26;20.40;88.80
55771;DHT22;41687;-33.234;-60.334;2023-04-30T04:04:53;20.40;88.80
55771;DHT22;41687;-33.234;-60.334;2023-04-30T04:07:21;20.40;88.80
55771;DHT22;41687;-33.234;-60.334;2023-04-30T04:09:49;20.40;88.50
55771;DHT22;41687;-33.234;-60.334;2023-04-30T04:12:16;20.40;88.70
55771;DHT22;41687;-33.234;-60.334;2023-04-30T04:14:44;20.40;88.50
55771;DHT22;41687;-33.234;-60.334;2023-04-30T04:17:12;20.40;88.60
55771;DHT22;41687;-33.234;-60.334;2023-04-30T04:19:42;20.30;88.50
55771;DHT22;41687;-33.234;-60.334;2023-04-30T04:22:12;20.40;88.20
55771;DHT22;41687;-33.234;-60.334;2023-04-30T04:24:40;20.40;88.00
55771;DHT22;41687;-33.234;-60.334;2023-04-30T04:27:08;20.30;88.60
55771;DHT22;41687;-33.234;-60.334;2023-04-30T04:29:37;20.20;88.90
55771;DHT22;41687;-33.234;-60.334;2023-04-30T04:32:04;20.20;88.90
55771;DHT22;41687;-33.234;-60.334;2023-04-30T04:34:34;20.10;89.30
55771;DHT22;41687;-33.234;-60.334;2023-04-30T04:37:05;20.10;89.80
55771;DHT22;41687;-33.234;-60.334;2023-04-30T04:39:33;20.00;89.60
55771;DHT22;41687;-33.234;-60.334;2023-04-30T04:42:02;20.00;89.90
55771;DHT22;41687;-33.234;-60.334;2023-04-30T04:44:31;20.10;89.40
55771;DHT22;41687;-33.234;-60.334;2023-04-30T04:46:59;20.10;89.50
55771;DHT22;41687;-33.234;-60.334;2023-04-30T04:49:30;20.20;89.20
55771;DHT22;41687;-33.234;-60.334;2023-04-30T04:51:57;20.10;89.10
55771;DHT22;41687;-33.234;-60.334;2023-04-30T04:54:26;20.20;89.10
55771;DHT22;41687;-33.234;-60.334;2023-04-30T04:56:54;20.20;89.10
55771;DHT22;41687;-33.234;-60.334;2023-04-30T04:59:22;20.20;89.20
55771;DHT22;41687;-33.234;-60.334;2023-04-30T05:01:50;20.10;89.40
55771;DHT22;41687;-33.234;-60.334;2023-04-30T05:04:18;20.10;89.40
55771;DHT22;41687;-33.234;-60.334;2023-04-30T05:06:45;20.20;89.30
55771;DHT22;41687;-33.234;-60.334;2023-04-30T05:09:14;20.20;89.00
55771;DHT22;41687;-33.234;-60.334;2023-04-30T05:11:41;20.20;89.30
55771;DHT22;41687;-33.234;-60.334;2023-04-30T05:14:10;20.30;89.30
55771;DHT22;41687;-33.234;-60.334;2023-04-30T05:16:37;20.30;89.20
55771;DHT22;41687;-33.234;-60.334;2023-04-30T05:19:06;20.30;89.20
55771;DHT22;41687;-33.234;-60.334;2023-04-30T05:21:34;20.30;89.40
55771;DHT22;41687;-33.234;-60.334;2023-04-30T05:24:04;20.20;89.50
55771;DHT22;41687;-33.234;-60.334;2023-04-30T05:26:32;20.30;89.80
55771;DHT22;41687;-33.234;-60.334;2023-04-30T05:28:59;20.20;89.80
55771;DHT22;41687;-33.234;-60.334;2023-04-30T05:31:27;20.10;90.00
55771;DHT22;41687;-33.234;-60.334;2023-04-30T05:33:55;20.10;90.10
55771;DHT22;41687;-33.234;-60.334;2023-04-30T05:36:23;20.10;90.20
55771;DHT22;41687;-33.234;-60.334;2023-04-30T05:38:50;20.20;90.10
55771;DHT22;41687;-33.234;-60.334;2023-04-30T05:41:18;20.20;90.20
55771;DHT22;41687;-33.234;-60.334;2023-04-30T05:43:45;20.10;90.40
55771;DHT22;41687;-33.234;-60.334;2023-04-30T05:46:14;20.00;90.40
55771;DHT22;41687;-33.234;-60.334;2023-04-30T05:48:41;20.10;90.40
55771;DHT22;41687;-33.234;-60.334;2023-04-30T05:51:09;20.20;90.40
55771;DHT22;41687;-33.234;-60.334;2023-04-30T05:53:37;20.10;90.50
55771;DHT22;41687;-33.234;-60.334;2023-04-30T05:56:04;20.10;90.50
55771;DHT22;41687;-33.234;-60.334;2023-04-30T05:58:32;20.00;90.60
55771;DHT22;41687;-33.234;-60.334;2023-04-30T06:01:00;20.10;90.50
55771;DHT22;41687;-33.234;-60.334;2023-04-30T06:03:28;20.10;90.60
55771;DHT22;41687;-33.234;-60.334;2023-04-30T06:05:55;20.00;90.80
55771;DHT22;41687;-33.234;-60.334;2023-04-30T06:08:23;20.10;90.70
55771;DHT22;41687;-33.234;-60.334;2023-04-30T06:10:51;20.00;90.70
55771;DHT22;41687;-33.234;-60.334;2023-04-30T06:13:18;20.00;90.80
55771;DHT22;41687;-33.234;-60.334;2023-04-30T06:15:46;20.10;90.70
55771;DHT22;41687;-33.234;-60.334;2023-04-30T06:18:13;20.10;90.70
55771;DHT22;41687;-33.234;-60.334;2023-04-30T06:20:42;20.00;90.90
55771;DHT22;41687;-33.234;-60.334;2023-04-30T06:23:09;20.00;91.00
55771;DHT22;41687;-33.234;-60.334;2023-04-30T06:25:37;20.00;90.80
55771;DHT22;41687;-33.234;-60.334;2023-04-30T06:28:05;20.10;90.80
55771;DHT22;41687;-33.234;-60.334;2023-04-30T06:30:36;20.10;90.80
55771;DHT22;41687;-33.234;-60.334;2023-04-30T06:33:03;20.10;91.20
55771;DHT22;41687;-33.234;-60.334;2023-04-30T06:35:32;20.10;91.10
55771;DHT22;41687;-33.234;-60.334;2023-04-30T06:37:59;20.10;91.10
55771;DHT22;41687;-33.234;-60.334;2023-04-30T06:40:27;20.00;91.50
55771;DHT22;41687;-33.234;-60.334;2023-04-30T06:42:54;20.00;91.50
55771;DHT22;41687;-33.234;-60.334;2023-04-30T06:45:22;20.00;91.30
55771;DHT22;41687;-33.234;-60.334;2023-04-30T06:47:50;20.00;91.60
55771;DHT22;41687;-33.234;-60.334;2023-04-30T06:50:19;20.00;91.50
55771;DHT22;41687;-33.234;-60.334;2023-04-30T06:52:47;20.00;91.70
55771;DHT22;41687;-33.234;-60.334;2023-04-30T06:55:15;20.00;91.70
55771;DHT22;41687;-33.234;-60.334;2023-04-30T06:57:43;20.00;91.60
55771;DHT22;41687;-33.234;-60.334;2023-04-30T07:00:11;20.10;91.60
55771;DHT22;41687;-33.234;-60.334;2023-04-30T07:02:41;20.00;91.80
55771;DHT22;41687;-33.234;-60.334;2023-04-30T07:05:09;20.00;92.10
55771;DHT22;41687;-33.234;-60.334;2023-04-30T07:07:38;20.00;91.90
55771;DHT22;41687;-33.234;-60.334;2023-04-30T07:10:05;20.00;92.00
55771;DHT22;41687;-33.234;-60.334;2023-04-30T07:12:34;20.00;92.30
55771;DHT22;41687;-33.234;-60.334;2023-04-30T07:15:01;19.90;92.10
55771;DHT22;41687;-33.234;-60.334;2023-04-30T07:17:29;20.00;92.20
55771;DHT22;41687;-33.234;-60.334;2023-04-30T07:19:57;20.00;92.30
55771;DHT22;41687;-33.234;-60.334;2023-04-30T07:22:25;20.00;92.20
55771;DHT22;41687;-33.234;-60.334;2023-04-30T07:24:53;20.00;92.10
55771;DHT22;41687;-33.234;-60.334;2023-04-30T07:27:21;20.00;92.20
55771;DHT22;41687;-33.234;-60.334;2023-04-30T07:29:50;20.00;92.10
55771;DHT22;41687;-33.234;-60.334;2023-04-30T07:32:17;20.00;92.10
55771;DHT22;41687;-33.234;-60.334;2023-04-30T07:34:45;20.00;92.20
55771;DHT22;41687;-33.234;-60.334;2023-04-30T07:37:13;20.00;92.20
55771;DHT22;41687;-33.234;-60.334;2023-04-30T07:39:40;19.90;92.40
55771;DHT22;41687;-33.234;-60.334;2023-04-30T07:42:08;20.00;92.40
55771;DHT22;41687;-33.234;-60.334;2023-04-30T07:44:35;20.00;92.40
55771;DHT22;41687;-33.234;-60.334;2023-04-30T07:47:04;20.00;92.30
55771;DHT22;41687;-33.234;-60.334;2023-04-30T07:49:32;20.00;92.50
55771;DHT22;41687;-33.234;-60.334;2023-04-30T07:51:59;20.00;92.50
55771;DHT22;41687;-33.234;-60.334;2023-04-30T07:54:27;20.00;92.50
55771;DHT22;41687;-33.234;-60.334;2023-04-30T07:56:55;19.90;92.70
55771;DHT22;41687;-33.234;-60.334;2023-04-30T07:59:22;19.90;92.70
55771;DHT22;41687;-33.234;-60.334;2023-04-30T08:01:51;19.90;92.70
55771;DHT22;41687;-33.234;-60.334;2023-04-30T08:04:18;19.90;93.10
55771;DHT22;41687;-33.234;-60.334;2023-04-30T08:06:46;19.80;93.00
55771;DHT22;41687;-33.234;-60.334;2023-04-30T08:09:13;19.80;93.30
55771;DHT22;41687;-33.234;-60.334;2023-04-30T08:11:41;19.80;93.30
55771;DHT22;41687;-33.234;-60.334;2023-04-30T08:14:08;19.90;93.20
55771;DHT22;41687;-33.234;-60.334;2023-04-30T08:16:36;20.00;93.20
55771;DHT22;41687;-33.234;-60.334;2023-04-30T08:19:03;20.00;93.20
55771;DHT22;41687;-33.234;-60.334;2023-04-30T08:21:32;20.00;93.20
55771;DHT22;41687;-33.234;-60.334;2023-04-30T08:24:00;20.00;93.30
55771;DHT22;41687;-33.234;-60.334;2023-04-30T08:26:28;20.00;93.20
55771;DHT22;41687;-33.234;-60.334;2023-04-30T08:28:55;20.00;93.20
55771;DHT22;41687;-33.234;-60.334;2023-04-30T08:31:23;20.00;93.40
55771;DHT22;41687;-33.234;-60.334;2023-04-30T08:33:50;20.00;93.70
55771;DHT22;41687;-33.234;-60.334;2023-04-30T08:36:18;20.00;93.50
55771;DHT22;41687;-33.234;-60.334;2023-04-30T08:38:46;20.00;93.80
55771;DHT22;41687;-33.234;-60.334;2023-04-30T08:41:14;20.00;93.90
55771;DHT22;41687;-33.234;-60.334;2023-04-30T08:43:42;20.00;93.80
55771;DHT22;41687;-33.234;-60.334;2023-04-30T08:46:11;20.10;93.70
55771;DHT22;41687;-33.234;-60.334;2023-04-30T08:48:40;20.00;93.80
55771;DHT22;41687;-33.234;-60.334;2023-04-30T08:51:08;20.00;93.90
55771;DHT22;41687;-33.234;-60.334;2023-04-30T08:53:37;20.00;94.10
55771;DHT22;41687;-33.234;-60.334;2023-04-30T08:56:05;20.00;94.30
55771;DHT22;41687;-33.234;-60.334;2023-04-30T08:58:33;19.90;94.30
55771;DHT22;41687;-33.234;-60.334;2023-04-30T09:01:01;19.90;94.50
55771;DHT22;41687;-33.234;-60.334;2023-04-30T09:03:30;19.90;94.50
55771;DHT22;41687;-33.234;-60.334;2023-04-30T09:05:58;19.90;94.60
55771;DHT22;41687;-33.234;-60.334;2023-04-30T09:08:45;19.90;94.50
55771;DHT22;41687;-33.234;-60.334;2023-04-30T09:11:25;20.00;94.80
55771;DHT22;41687;-33.234;-60.334;2023-04-30T09:13:55;20.00;94.80
55771;DHT22;41687;-33.234;-60.334;2023-04-30T09:16:25;19.90;94.80
55771;DHT22;41687;-33.234;-60.334;2023-04-30T09:18:53;19.90;94.70
55771;DHT22;41687;-33.234;-60.334;2023-04-30T09:21:35;19.90;94.80
55771;DHT22;41687;-33.234;-60.334;2023-04-30T09:24:04;20.00;95.20
55771;DHT22;41687;-33.234;-60.334;2023-04-30T09:26:35;19.90;95.20
55771;DHT22;41687;-33.234;-60.334;2023-04-30T09:29:04;19.90;95.30
55771;DHT22;41687;-33.234;-60.334;2023-04-30T09:31:38;19.90;95.30
55771;DHT22;41687;-33.234;-60.334;2023-04-30T09:34:06;19.90;95.70
55771;DHT22;41687;-33.234;-60.334;2023-04-30T09:36:33;19.90;95.40
55771;DHT22;41687;-33.234;-60.334;2023-04-30T09:39:08;19.90;95.80
55771;DHT22;41687;-33.234;-60.334;2023-04-30T09:41:40;19.90;95.80
55771;DHT22;41687;-33.234;-60.334;2023-04-30T09:44:08;19.90;95.70
55771;DHT22;41687;-33.234;-60.334;2023-04-30T09:46:52;19.90;95.80
55771;DHT22;41687;-33.234;-60.334;2023-04-30T09:49:20;19.90;95.90
55771;DHT22;41687;-33.234;-60.334;2023-04-30T09:51:57;19.90;96.00
55771;DHT22;41687;-33.234;-60.334;2023-04-30T09:54:29;19.90;96.30
55771;DHT22;41687;-33.234;-60.334;2023-04-30T09:56:57;19.90;96.10
55771;DHT22;41687;-33.234;-60.334;2023-04-30T09:59:31;19.90;96.20
55771;DHT22;41687;-33.234;-60.334;2023-04-30T10:02:06;20.00;96.30
55771;DHT22;41687;-33.234;-60.334;2023-04-30T10:04:41;20.00;96.40
55771;DHT22;41687;-33.234;-60.334;2023-04-30T10:07:19;19.90;96.60
55771;DHT22;41687;-33.234;-60.334;2023-04-30T10:09:56;19.90;96.60
55771;DHT22;41687;-33.234;-60.334;2023-04-30T10:12:32;19.90;96.80
55771;DHT22;41687;-33.234;-60.334;2023-04-30T10:15:15;20.00;96.50
55771;DHT22;41687;-33.234;-60.334;2023-04-30T10:17:48;19.90;96.80
55771;DHT22;41687;-33.234;-60.334;2023-04-30T10:20:17;19.90;97.00
55771;DHT22;41687;-33.234;-60.334;2023-04-30T10:22:46;19.90;96.80
55771;DHT22;41687;-33.234;-60.334;2023-04-30T10:25:16;20.00;96.70
55771;DHT22;41687;-33.234;-60.334;2023-04-30T10:27:45;20.00;96.60
55771;DHT22;41687;-33.234;-60.334;2023-04-30T10:30:12;20.00;97.00
55771;DHT22;41687;-33.234;-60.334;2023-04-30T10:33:36;20.00;96.70
55771;DHT22;41687;-33.234;-60.334;2023-04-30T10:35:58;20.00;97.00
55771;DHT22;41687;-33.234;-60.334;2023-04-30T10:38:29;20.00;97.20
55771;DHT22;41687;-33.234;-60.334;2023-04-30T10:40:59;20.00;97.30
55771;DHT22;41687;-33.234;-60.334;2023-04-30T10:43:29;19.90;97.40
55771;DHT22;41687;-33.234;-60.334;2023-04-30T10:45:58;20.00;97.10
55771;DHT22;41687;-33.234;-60.334;2023-04-30T10:48:25;20.00;97.10
55771;DHT22;41687;-33.234;-60.334;2023-04-30T10:50:58;20.00;97.30
55771;DHT22;41687;-33.234;-60.334;2023-04-30T10:53:25;20.00;97.30
55771;DHT22;41687;-33.234;-60.334;2023-04-30T10:56:05;20.00;97.20
55771;DHT22;41687;-33.234;-60.334;2023-04-30T10:58:36;20.00;97.40
55771;DHT22;41687;-33.234;-60.334;2023-04-30T11:01:14;20.10;97.20
55771;DHT22;41687;-33.234;-60.334;2023-04-30T11:04:09;20.10;97.40
55771;DHT22;41687;-33.234;-60.334;2023-04-30T11:09:37;20.10;97.50
55771;DHT22;41687;-33.234;-60.334;2023-04-30T11:12:20;20.10;97.40
55771;DHT22;41687;-33.234;-60.334;2023-04-30T11:15:12;20.10;97.50
55771;DHT22;41687;-33.234;-60.334;2023-04-30T11:17:43;20.10;97.60
55771;DHT22;41687;-33.234;-60.334;2023-04-30T11:20:19;20.10;97.70
55771;DHT22;41687;-33.234;-60.334;2023-04-30T11:23:11;20.10;97.60
55771;DHT22;41687;-33.234;-60.334;2023-04-30T11:25:46;20.20;97.70
55771;DHT22;41687;-33.234;-60.334;2023-04-30T11:28:18;20.10;97.50
55771;DHT22;41687;-33.234;-60.334;2023-04-30T11:30:51;20.20;97.50
55771;DHT22;41687;-33.234;-60.334;2023-04-30T11:33:20;20.30;97.50
55771;DHT22;41687;-33.234;-60.334;2023-04-30T11:35:50;20.50;97.00
55771;DHT22;41687;-33.234;-60.334;2023-04-30T11:40:53;20.50;97.20
55771;DHT22;41687;-33.234;-60.334;2023-04-30T11:43:25;20.40;97.40
55771;DHT22;41687;-33.234;-60.334;2023-04-30T11:48:35;20.90;96.60
55771;DHT22;41687;-33.234;-60.334;2023-04-30T11:51:23;21.00;96.50
55771;DHT22;41687;-33.234;-60.334;2023-04-30T11:53:53;21.00;96.60
55771;DHT22;41687;-33.234;-60.334;2023-04-30T11:56:23;20.90;96.60
55771;DHT22;41687;-33.234;-60.334;2023-04-30T11:58:52;20.90;96.70
55771;DHT22;41687;-33.234;-60.334;2023-04-30T12:01:26;20.80;96.90
55771;DHT22;41687;-33.234;-60.334;2023-04-30T12:03:55;20.90;96.80
55771;DHT22;41687;-33.234;-60.334;2023-04-30T12:06:29;20.90;97.00
55771;DHT22;41687;-33.234;-60.334;2023-04-30T12:08:59;21.20;96.80
55771;DHT22;41687;-33.234;-60.334;2023-04-30T12:11:35;21.10;96.70
55771;DHT22;41687;-33.234;-60.334;2023-04-30T12:14:07;21.10;96.90
55771;DHT22;41687;-33.234;-60.334;2023-04-30T12:19:11;21.00;97.10
55771;DHT22;41687;-33.234;-60.334;2023-04-30T12:21:41;21.00;97.30
55771;DHT22;41687;-33.234;-60.334;2023-04-30T12:24:18;21.10;97.20
55771;DHT22;41687;-33.234;-60.334;2023-04-30T12:26:46;21.10;97.30
55771;DHT22;41687;-33.234;-60.334;2023-04-30T12:29:17;21.10;97.40
55771;DHT22;41687;-33.234;-60.334;2023-04-30T12:31:48;21.10;97.60
55771;DHT22;41687;-33.234;-60.334;2023-04-30T12:34:18;21.10;97.60
55771;DHT22;41687;-33.234;-60.334;2023-04-30T12:36:46;21.20;97.30
55771;DHT22;41687;-33.234;-60.334;2023-04-30T12:39:15;21.30;97.40
55771;DHT22;41687;-33.234;-60.334;2023-04-30T12:41:48;21.20;97.60
55771;DHT22;41687;-33.234;-60.334;2023-04-30T12:44:22;21.30;97.60
55771;DHT22;41687;-33.234;-60.334;2023-04-30T12:46:55;21.30;97.70
55771;DHT22;41687;-33.234;-60.334;2023-04-30T12:49:28;21.20;98.00
55771;DHT22;41687;-33.234;-60.334;2023-04-30T12:52:08;21.40;97.80
55771;DHT22;41687;-33.234;-60.334;2023-04-30T12:54:38;21.40;97.90
55771;DHT22;41687;-33.234;-60.334;2023-04-30T12:57:08;21.50;97.80
55771;DHT22;41687;-33.234;-60.334;2023-04-30T12:59:39;21.50;97.50
55771;DHT22;41687;-33.234;-60.334;2023-04-30T13:02:12;21.50;97.70
55771;DHT22;41687;-33.234;-60.334;2023-04-30T13:04:41;21.50;97.90
55771;DHT22;41687;-33.234;-60.334;2023-04-30T13:07:09;21.50;98.30
55771;DHT22;41687;-33.234;-60.334;2023-04-30T13:09:38;21.60;98.20
55771;DHT22;41687;-33.234;-60.334;2023-04-30T13:12:05;21.60;98.10
55771;DHT22;41687;-33.234;-60.334;2023-04-30T13:14:33;21.70;98.00
55771;DHT22;41687;-33.234;-60.334;2023-04-30T13:17:01;21.80;97.90
55771;DHT22;41687;-33.234;-60.334;2023-04-30T13:19:32;21.70;98.20
55771;DHT22;41687;-33.234;-60.334;2023-04-30T13:22:00;21.70;98.20
55771;DHT22;41687;-33.234;-60.334;2023-04-30T13:24:29;21.70;98.30
55771;DHT22;41687;-33.234;-60.334;2023-04-30T13:26:57;21.70;98.30
55771;DHT22;41687;-33.234;-60.334;2023-04-30T13:29:25;21.70;98.60
55771;DHT22;41687;-33.234;-60.334;2023-04-30T13:31:53;21.70;98.40
55771;DHT22;41687;-33.234;-60.334;2023-04-30T13:34:20;21.70;98.60
55771;DHT22;41687;-33.234;-60.334;2023-04-30T13:36:48;21.70;98.80
55771;DHT22;41687;-33.234;-60.334;2023-04-30T13:39:16;21.70;98.60
55771;DHT22;41687;-33.234;-60.334;2023-04-30T13:41:44;21.80;98.70
55771;DHT22;41687;-33.234;-60.334;2023-04-30T13:44:11;21.80;98.60
55771;DHT22;41687;-33.234;-60.334;2023-04-30T13:46:39;21.80;98.70
55771;DHT22;41687;-33.234;-60.334;2023-04-30T13:49:07;21.80;98.80
55771;DHT22;41687;-33.234;-60.334;2023-04-30T13:51:34;21.80;98.80
55771;DHT22;41687;-33.234;-60.334;2023-04-30T13:54:02;21.90;98.70
55771;DHT22;41687;-33.234;-60.334;2023-04-30T13:56:29;21.90;98.80
55771;DHT22;41687;-33.234;-60.334;2023-04-30T13:58:57;21.90;98.70
55771;DHT22;41687;-33.234;-60.334;2023-04-30T14:01:24;22.00;98.90
55771;DHT22;41687;-33.234;-60.334;2023-04-30T14:03:52;22.10;98.70
55771;DHT22;41687;-33.234;-60.334;2023-04-30T14:06:20;22.10;98.90
55771;DHT22;41687;-33.234;-60.334;2023-04-30T14:08:48;22.10;99.20
55771;DHT22;41687;-33.234;-60.334;2023-04-30T14:11:15;22.10;99.10
55771;DHT22;41687;-33.234;-60.334;2023-04-30T14:13:43;22.10;99.20
55771;DHT22;41687;-33.234;-60.334;2023-04-30T14:16:10;22.30;99.10
55771;DHT22;41687;-33.234;-60.334;2023-04-30T14:18:39;22.30;99.10
55771;DHT22;41687;-33.234;-60.334;2023-04-30T14:21:05;22.50;99.00
55771;DHT22;41687;-33.234;-60.334;2023-04-30T14:23:33;22.70;98.70
55771;DHT22;41687;-33.234;-60.334;2023-04-30T14:26:02;22.70;98.60
55771;DHT22;41687;-33.234;-60.334;2023-04-30T14:28:30;22.80;98.70
55771;DHT22;41687;-33.234;-60.334;2023-04-30T14:30:57;22.90;98.50
55771;DHT22;41687;-33.234;-60.334;2023-04-30T14:33:26;23.00;98.30
55771;DHT22;41687;-33.234;-60.334;2023-04-30T14:35:53;23.00;98.20
55771;DHT22;41687;-33.234;-60.334;2023-04-30T14:38:21;23.20;98.00
55771;DHT22;41687;-33.234;-60.334;2023-04-30T14:40:48;23.30;98.00
55771;DHT22;41687;-33.234;-60.334;2023-04-30T14:43:16;23.30;97.90
55771;DHT22;41687;-33.234;-60.334;2023-04-30T14:45:44;23.30;97.80
55771;DHT22;41687;-33.234;-60.334;2023-04-30T14:48:12;23.30;97.70
55771;DHT22;41687;-33.234;-60.334;2023-04-30T14:50:39;23.30;97.50
55771;DHT22;41687;-33.234;-60.334;2023-04-30T14:53:07;23.40;97.50
55771;DHT22;41687;-33.234;-60.334;2023-04-30T14:55:40;23.40;97.30
55771;DHT22;41687;-33.234;-60.334;2023-04-30T14:58:09;23.50;97.40
55771;DHT22;41687;-33.234;-60.334;2023-04-30T15:00:36;23.70;97.20
55771;DHT22;41687;-33.234;-60.334;2023-04-30T15:03:04;23.90;96.90
55771;DHT22;41687;-33.234;-60.334;2023-04-30T15:05:32;24.10;96.80
55771;DHT22;41687;-33.234;-60.334;2023-04-30T15:08:00;24.30;96.70
55771;DHT22;41687;-33.234;-60.334;2023-04-30T15:10:27;24.50;96.40
55771;DHT22;41687;-33.234;-60.334;2023-04-30T15:12:55;24.40;96.30
55771;DHT22;41687;-33.234;-60.334;2023-04-30T15:15:23;24.40;96.40
55771;DHT22;41687;-33.234;-60.334;2023-04-30T15:17:55;24.40;96.30
55771;DHT22;41687;-33.234;-60.334;2023-04-30T15:20:23;24.40;96.20
55771;DHT22;41687;-33.234;-60.334;2023-04-30T15:22:51;24.30;96.30
55771;DHT22;41687;-33.234;-60.334;2023-04-30T15:25:23;24.30;96.20
55771;DHT22;41687;-33.234;-60.334;2023-04-30T15:27:51;24.30;96.30